Filter options
Transaction Type
Select the type of transaction: Award, Buy, Sell, Transfer, or Contract Buy.
Transaction Value
Select the min transaction value.
Politician Only
Choose whether to filter for transactions made by politicians only.
19,031 Transactions
Symbol Owner Relationship Date Transaction Cost #Shares Value($) #Shares Total
MTCH Philip D Eigenmann CAO 08/28/26 Sell 41.7 15,000 625,499 19,389
NRP Gregory F Wooten EVP Bus Dev 08/28/26 Sell 110.89 2,200 243,954 32,634
GLOB Wanda Weigert CMO 08/28/26 Sell 40.45 6,000 242,718 64,046
GLOB Diego Tartara CTO 08/28/26 Sell 40.45 6,000 242,718 72,320
EW Annette Bruls Div. Off. 08/28/26 Sell 89.98 2,644 237,907 17,984
RGLD Randy Shefman Gen Cou 08/28/26 Sell 262.8 500 131,399 8,082
NRIM Jed W Ballard CFO 08/28/26 Sell 25.91 3,492 90,480 26,835
PLSE Liane Teplitsky COO 08/28/26 Buy 48.29 2,070 99,965 2,070
BIVI Joseph M Palumbo Chf Med Off. 08/28/26 Buy 2.16 4,843 10,461 6,036
CHYM Adam B Frankel Gen Cou 08/28/26 Award 0 115,474 3,852,213 406,830
CHYM Amine Asmerom CAO 08/28/26 Award 0 92,379 3,081,764 300,480
AMCR Susana Suarez Gonzalez CHRO 08/28/26 Award 0 9,236 429,658 28,388
AMCR Deborah M Rasin Gen Cou 08/28/26 Award 0 7,391 343,839 17,676
AMCR Julie Sorrells Contr. 08/28/26 Award 0 1,816 84,490 10,729
MGNI Sarah Patricia Harden N/A 08/28/26 Sell 23.57 48,986 1,154,586 114,751
NBR David J Tudor N/A 08/28/26 Sell 92.3 3,200 295,359 5,264
DOCU James A Beer Chair 08/28/26 Sell 64.02 450 28,809 20,129
SUJA Kevin Schwartz N/A 08/28/26 Buy 9.35 652,248 6,097,149 11,101,014
SNFI Alexandre Zyngier N/A 08/28/26 Buy 1.7 10,648 18,081 511,532
CLCHF David John Losito N/A 08/28/26 Buy 0.77 14,200 10,935 360,911
VTSI Grant Barber N/A 08/28/26 Buy 3.03 3,350 10,136 24,392
MATX Matthew J Cox Chair & CEO 08/28/26 Sell 223.54 10,000 2,235,385 229,296
AAT Ernest S Rady Chair 08/28/26 Buy 22.54 100,000 2,254,001 14,221,764
BRPSF Viral Patel CEO 08/28/26 Buy 39.15 51,084 2,000,000 151,274
UAMY Gary C Evans Chair & CEO 08/28/26 Buy 4.92 20,000 98,400 2,590,028
AMCR Peter Konieczny CEO 08/28/26 Award 0 9,753 453,719 148,762
FLYW American Shareholder N/A 08/27/26 Sell 18.93 120,021 2,272,273 13,730,706
ECAT American Shareholder N/A 08/27/26 Sell 15.52 92,174 1,430,540 13,896,984
CCAP American Shareholder N/A 08/27/26 Sell 10.6 59,286 628,592 4,072,564
GLOO American Shareholder N/A 08/27/26 Sell 3.33 8,521 28,364 4,114,000
RSG American Shareholder N/A 08/27/26 Buy 220.52 560,100 123,511,796 113,935,127
NYC Nicholas S Schorsch N/A 08/27/26 Buy 6.75 10,000 67,450 1,991,412
ECF American Shareholder N/A 08/27/26 Buy 12.49 3,900 48,712 1,615,462
GRX American Shareholder N/A 08/27/26 Buy 10.05 4,340 43,618 2,155,133
FGL American Shareholder N/A 08/27/26 Buy 0.17 93,151 15,929 355,503
RKLB Frank Klein COO 08/27/26 Sell 66.61 35,558 2,368,354 925,737
GSL Anastasios Psaropoulos CFO 08/27/26 Sell 45.02 50,000 2,251,240 450,160
BRZE Jonathan Hyman CTO 08/27/26 Sell 32.47 42,000 1,363,588 1,743,219
FENC Robert Christopher Andrade CFO 08/27/26 Sell 11.78 106,844 1,258,622 217,675
AA Tammi A Jones CHRO 08/27/26 Sell 50.6 15,628 790,733 51,846
CW John C Watts CGO 08/27/26 Sell 619.46 1,035 641,142 2,736
ATR Gael Touya Div. Pres. 08/27/26 Sell 133.76 3,740 500,276 29,102
GWRE David Franklin Peterson PAO 08/27/26 Sell 200 2,500 500,000 9,787
XMTR Vaidyanathan Raghavan CTO 08/27/26 Sell 96.77 5,000 483,825 135,777
GIL Maria Andrea Pirie Woodbridge N/A 08/27/26 Sell 53.84 8,000 430,682 2,243
RKLB Arjun Kampani Gen Cou 08/27/26 Sell 66.65 6,034 402,186 250,917
INTU Lauren D Hotz CAO 08/27/26 Sell 346.54 907 314,289 1,628
AEIS Elizabeth Karpinski Vonne Gen Cou 08/27/26 Sell 290.05 907 263,076 9,805
DXCM Sadie Stern EVP, People Off 08/27/26 Sell 88.37 2,565 226,669 126,043
BCC Jill Twedt Gen Cou 08/27/26 Sell 79.4 1,250 99,250 25,295
HBB Sarah M Cunningham CFO 08/27/26 Sell 32.5 3,000 97,499 39,430
U Alex Blum COO 08/27/26 Sell 44.81 1,964 88,006 705,411
NDSN Jennifer L Mcdonough Gen Cou & Sec 08/27/26 Sell 336 260 87,360 6,346
EXOD Matias Olivera CTO 08/27/26 Sell 8.42 8,505 71,640 320,253
FBIZ Jodi A Chandler HR 08/27/26 Sell 70.19 675 47,382 22,550
BL Michelle D Stalick CAO 08/27/26 Sell 33.65 780 26,247 34,712
CVSA Manju Gangadharan CAO 08/27/26 Sell 137.18 188 25,790 5,083
GFS Samak L Azar CLO 08/27/26 Sell 46.75 335 15,662 10,469
FNKO Yves Lependeven Act. CFO 08/27/26 Sell 7 2,167 15,173 42,769
INDV Woodrow D Anderson CAO 08/27/26 Buy 35.69 1,500 53,534 27,638
LIEN Bernardino Colonna Pres. 08/27/26 Buy 10.17 1,600 16,270 4,030
JUSH Louis (Jonathan) Barack Pre./CRO 08/27/26 Buy 0.5 30,000 15,001 2,913,773
AVT Kenneth A Jacobson CFO 08/27/26 Award 0 6,388 584,598 133,366
NAKA Teresa S Gendron CFO & Treas 08/27/26 Award 0 70,821 547,446 136,437
AVT Michael Ryan Mccoy Gen Cou 08/27/26 Award 0 5,537 506,719 102,431
AVT Ken E Arnold SVP & CPO 08/27/26 Award 0 5,111 467,733 85,923
NAKA John M Dalton Contr. & CAO 08/27/26 Award 0 42,492 328,463 81,862
AVT Leng Jin Chan CIO 08/27/26 Award 0 3,194 292,298 56,790
CXDO Ron Vincent CFO 08/27/26 Award 0 1,666 10,629 131,785
ILMN Keith Meister N/A 08/27/26 Sell 226.74 375,941 85,241,652 1,040,690
GEN Ondrej Vlcek N/A 08/27/26 Sell 30 200,000 6,000,000 3,634,904
SNDA Michael Simanovsky Chair 08/27/26 Sell 40.56 145,086 5,884,398 13,647,640
PTCT Michael Schmertzler Chair 08/27/26 Sell 72.26 25,000 1,806,511 1,499,860
NSSC Donna Anne Soloway N/A 08/27/26 Sell 35.4 48,962 1,733,142 0
XYZ Anthony Mathew Eisen N/A 08/27/26 Sell 82.6 18,000 1,486,859 1,470,672
T-C Dale Anne Reiss N/A 08/27/26 Sell 92.04 13,400 1,233,368 88,981
CZR Jan Jone Blackhurst N/A 08/27/26 Sell 29.63 33,899 1,004,447 0
NVEC Dr. Daniel A Baker Chair 08/27/26 Sell 108.74 5,731 623,217 39,072
ROK Patricia A Watson N/A 08/27/26 Sell 431.43 1,100 474,569 6,385
AUGO Bruno Mauad N/A 08/27/26 Sell 89.67 4,958 444,584 4,637,456
ADI Karen Golz N/A 08/27/26 Sell 374.5 1,000 374,499 10,019
ALMU Steven Denbaars N/A 08/27/26 Sell 13.83 25,000 345,742 345,209
EVCM Eric Richard Remer N/A 08/27/26 Sell 9.06 37,925 343,738 7,559,764
FCX Lydia H Kennard N/A 08/27/26 Sell 79.11 3,798 300,471 122,702
CRVL Judd R Jessup Lead Indpdt. Dir 08/27/26 Sell 70.68 2,824 199,597 115,821
FCNCP William P Phelan N/A 08/27/26 Sell 12.05 14,961 180,348 71,272
EVCM Eric Richard Remer N/A 08/27/26 Sell 9.18 19,200 176,183 7,559,764
MLI Scott Jay Goldman N/A 08/27/26 Sell 64.08 2,000 128,161 79,734
SEZL Kyle M Brehm N/A 08/27/26 Sell 125.92 1,000 125,921 23,853
PEBK James S Abernethy V.Chair 08/27/26 Sell 43.11 1,000 43,110 171,467
ASTI Reynolds T Forrest N/A 08/27/26 Sell 3.08 9,120 28,097 22,214
DKS Mark J Barrenechea N/A 08/27/26 Buy 130.72 17,000 2,222,240 27,790
RGNX Gregory Austin Ciongoli N/A 08/27/26 Buy 9.25 102,603 949,385 118,035
DKS William J Colombo V.Chair 08/27/26 Buy 128.77 6,100 785,500 180,925
HYLN Vincent T Cubbage N/A 08/27/26 Buy 3.4 50,000 170,000 1,131,363
RDVT William Paul Livek N/A 08/27/26 Buy 71.49 2,000 142,980 22,733
AFCG Leonard M Tannenbaum Chair 08/27/26 Buy 3.43 34,606 118,768 7,122,358
SRTS Eric Sachetta N/A 08/27/26 Buy 3.23 20,633 66,682 232,036
ESEA Aristides P. Pittas N/A 08/27/26 Buy 75.86 750 56,898 116,850
HWBK Shawna M Hettinger N/A 08/27/26 Buy 38.47 1,300 49,999 5,924